Time;durP1;ratioP1;P1;durP2;ratioP2;P2;SDS_P1;SDS_P2;PMS_P1;PMS_P2;Temp;Humidity;BMP_temperature;BMP_pressure;BME280_temperature;BME280_humidity;BME280_pressure;Samples;Min_cycle;Max_cycle;Signal;HPM_P1;HPM_P2
2022/07/14 00:01:39;;;;;;;2.00;1.83;;;20.80;53.50;;;;;;4980342;28;20181;-61
2022/07/14 00:04:06;;;;;;;6.77;2.00;;;20.70;53.60;;;;;;4982977;28;20443;-60
2022/07/14 00:06:32;;;;;;;4.20;2.50;;;20.70;53.90;;;;;;4984492;28;20201;-60
2022/07/14 00:08:58;;;;;;;3.73;2.17;;;20.60;54.20;;;;;;4981875;28;20460;-60
2022/07/14 00:11:24;;;;;;;3.60;2.00;;;20.60;54.40;;;;;;4988019;28;21105;-60
2022/07/14 00:13:50;;;;;;;3.10;2.50;;;20.50;54.60;;;;;;4983148;28;20175;-60
2022/07/14 00:16:16;;;;;;;2.10;2.00;;;20.40;54.60;;;;;;4982981;28;20452;-61
2022/07/14 00:18:44;;;;;;;2.90;1.77;;;20.40;54.50;;;;;;4987280;28;20336;-61
2022/07/14 00:21:14;;;;;;;2.23;1.73;;;20.40;54.60;;;;;;4984938;28;20176;-61
2022/07/14 00:23:45;;;;;;;2.17;1.73;;;20.30;54.60;;;;;;4984799;28;20425;-61
2022/07/14 00:26:11;;;;;;;2.90;2.00;;;20.20;54.90;;;;;;4988612;28;20559;-61
2022/07/14 00:28:37;;;;;;;2.63;2.17;;;20.20;55.10;;;;;;4980129;28;20424;-61
2022/07/14 00:31:10;;;;;;;2.40;2.20;;;20.10;55.20;;;;;;4988227;28;20460;-61
2022/07/14 00:33:38;;;;;;;2.40;2.20;;;20.10;55.50;;;;;;4987931;28;20925;-60
2022/07/14 00:36:08;;;;;;;2.60;2.00;;;20.00;55.80;;;;;;4985012;28;20462;-60
2022/07/14 00:38:34;;;;;;;2.70;1.80;;;20.00;56.20;;;;;;4987674;28;20436;-61
2022/07/14 00:41:00;;;;;;;1.50;1.30;;;19.90;56.10;;;;;;4984287;28;20446;-61
2022/07/14 00:43:26;;;;;;;2.00;1.80;;;19.90;55.60;;;;;;4985404;28;20428;-61
2022/07/14 00:45:51;;;;;;;1.57;1.47;;;19.90;55.50;;;;;;4990263;28;20236;-61
2022/07/14 00:48:17;;;;;;;1.90;1.70;;;19.90;55.40;;;;;;4988459;28;20209;-61
2022/07/14 00:50:44;;;;;;;4.70;1.97;;;19.90;55.00;;;;;;4987493;28;20217;-60
2022/07/14 00:53:11;;;;;;;2.37;1.80;;;19.90;54.80;;;;;;4981371;28;20178;-60
2022/07/14 00:55:39;;;;;;;2.37;1.90;;;19.90;54.80;;;;;;4984938;28;20486;-60
2022/07/14 00:58:04;;;;;;;1.70;1.60;;;19.80;53.70;;;;;;4987533;28;20987;-61
2022/07/14 01:00:30;;;;;;;6.90;1.60;;;19.80;53.30;;;;;;4986294;28;20433;-61
2022/07/14 01:02:56;;;;;;;3.53;1.87;;;19.80;53.70;;;;;;4984533;28;20181;-61
2022/07/14 01:05:22;;;;;;;5.80;1.77;;;19.80;54.00;;;;;;4987752;28;20460;-60
2022/07/14 01:07:48;;;;;;;1.70;1.60;;;19.80;54.00;;;;;;4988632;28;20184;-61
2022/07/14 01:10:14;;;;;;;2.20;1.50;;;19.80;54.00;;;;;;4983167;28;20440;-61
2022/07/14 01:12:47;;;;;;;2.10;1.90;;;19.80;53.80;;;;;;4989548;28;20618;-60
2022/07/14 01:15:20;;;;;;;3.30;2.17;;;19.80;53.20;;;;;;4988033;28;20189;-60
2022/07/14 01:17:50;;;;;;;3.20;1.50;;;19.80;52.90;;;;;;4988810;28;20423;-60
2022/07/14 01:20:17;;;;;;;2.70;1.60;;;19.80;53.10;;;;;;4986659;28;20470;-60
2022/07/14 01:22:43;;;;;;;1.60;1.50;;;19.80;53.50;;;;;;4985186;28;20432;-60
2022/07/14 01:25:09;;;;;;;3.60;1.53;;;19.80;53.60;;;;;;4986098;28;20460;-61
2022/07/14 01:27:36;;;;;;;4.03;2.17;;;19.80;53.70;;;;;;4985783;28;20176;-60
2022/07/14 01:30:03;;;;;;;2.10;2.00;;;19.70;53.80;;;;;;4987114;28;20553;-60
2022/07/14 01:32:29;;;;;;;4.80;2.40;;;19.70;54.90;;;;;;4988452;28;20447;-60
2022/07/14 01:34:54;;;;;;;5.37;3.10;;;19.70;55.50;;;;;;4982508;28;20436;-61
2022/07/14 01:37:21;;;;;;;7.73;2.77;;;19.60;56.10;;;;;;4985195;28;20224;-61
2022/07/14 01:39:47;;;;;;;4.93;2.40;;;19.50;55.70;;;;;;4988218;28;20177;-60
2022/07/14 01:42:12;;;;;;;2.97;2.77;;;19.50;55.60;;;;;;4985838;28;20439;-60
2022/07/14 01:44:39;;;;;;;4.63;2.80;;;19.40;55.50;;;;;;4982814;28;20225;-61
2022/07/14 01:47:05;;;;;;;3.33;2.87;;;19.40;55.30;;;;;;4987590;28;20638;-60
2022/07/14 01:49:30;;;;;;;4.27;3.00;;;19.40;55.50;;;;;;4986606;28;20444;-61
2022/07/14 01:51:56;;;;;;;2.60;2.40;;;19.40;55.50;;;;;;4986093;28;20431;-60
2022/07/14 01:54:21;;;;;;;7.40;2.43;;;19.40;55.80;;;;;;4980367;28;20645;-60
2022/07/14 01:56:47;;;;;;;6.27;2.43;;;19.40;55.90;;;;;;4986656;28;20201;-60
2022/07/14 01:59:13;;;;;;;3.30;2.40;;;19.40;56.10;;;;;;4985629;28;20181;-61
2022/07/14 02:01:42;;;;;;;4.63;2.60;;;19.40;56.20;;;;;;4988125;28;20169;-60
2022/07/14 02:04:12;;;;;;;8.03;3.27;;;19.30;56.30;;;;;;4977238;28;20181;-61
2022/07/14 02:06:43;;;;;;;4.30;3.00;;;19.20;56.60;;;;;;4989446;28;20444;-60
2022/07/14 02:09:09;;;;;;;5.63;3.50;;;19.20;57.10;;;;;;4980459;28;20495;-60
2022/07/14 02:14:19;;;;;;;5.07;2.53;;;19.00;56.90;;;;;;4980229;28;20491;-61
2022/07/14 02:16:45;;;;;;;2.10;1.83;;;18.90;56.60;;;;;;4989777;28;20420;-60
2022/07/14 02:19:11;;;;;;;3.43;1.83;;;18.80;57.00;;;;;;4987767;28;20319;-61
2022/07/14 02:21:39;;;;;;;1.90;1.80;;;18.70;57.10;;;;;;4987019;28;20181;-61
2022/07/14 02:24:06;;;;;;;5.60;1.90;;;18.70;57.50;;;;;;4985625;28;20455;-60
2022/07/14 02:26:31;;;;;;;1.70;1.60;;;18.60;58.30;;;;;;4982917;28;20452;-60
2022/07/14 02:28:57;;;;;;;2.70;2.13;;;18.50;58.50;;;;;;4977955;28;20436;-60
2022/07/14 02:31:23;;;;;;;2.20;1.73;;;18.50;58.10;;;;;;4985338;28;20224;-60
2022/07/14 02:33:48;;;;;;;2.07;1.93;;;18.40;58.10;;;;;;4989318;28;20260;-60
2022/07/14 02:36:14;;;;;;;4.43;2.10;;;18.30;58.30;;;;;;4979245;28;20277;-60
2022/07/14 02:38:40;;;;;;;2.10;1.70;;;18.20;58.40;;;;;;4987807;28;20377;-60
2022/07/14 02:41:07;;;;;;;4.80;1.87;;;18.20;58.40;;;;;;4988493;28;20425;-60
2022/07/14 02:43:34;;;;;;;6.07;2.40;;;18.20;58.40;;;;;;4982176;28;20816;-60
2022/07/14 02:46:00;;;;;;;2.90;1.80;;;18.10;58.30;;;;;;4985990;28;20200;-61
2022/07/14 02:48:26;;;;;;;3.90;2.20;;;18.10;58.60;;;;;;4986141;28;21060;-61
2022/07/14 02:50:58;;;;;;;2.10;1.80;;;18.10;58.80;;;;;;4987003;28;20550;-61
2022/07/14 02:53:24;;;;;;;3.60;2.13;;;18.00;58.70;;;;;;4982033;28;20166;-60
2022/07/14 02:55:49;;;;;;;2.60;1.70;;;18.00;58.70;;;;;;4978692;28;20453;-61
2022/07/14 02:58:17;;;;;;;2.50;2.30;;;17.90;58.60;;;;;;4986900;28;20177;-61
2022/07/14 03:00:43;;;;;;;1.90;1.77;;;17.90;58.50;;;;;;4982480;28;20696;-60
2022/07/14 03:03:09;;;;;;;2.20;2.00;;;17.80;58.30;;;;;;4985219;28;20519;-62
2022/07/14 03:05:35;;;;;;;2.40;1.90;;;17.80;58.50;;;;;;4983210;28;20224;-60
2022/07/14 03:08:00;;;;;;;2.00;1.80;;;17.80;58.70;;;;;;4985678;28;20185;-60
2022/07/14 03:10:26;;;;;;;2.60;1.93;;;17.80;58.80;;;;;;4985431;28;20293;-60
2022/07/14 03:12:52;;;;;;;2.63;2.00;;;17.70;59.10;;;;;;4980816;28;20185;-60
2022/07/14 03:15:18;;;;;;;2.50;1.93;;;17.70;59.70;;;;;;4980303;28;20192;-61
2022/07/14 03:17:44;;;;;;;2.83;2.17;;;17.70;60.30;;;;;;4993037;28;20424;-60
2022/07/14 03:20:12;;;;;;;1.97;1.87;;;17.60;60.60;;;;;;4986864;28;20308;-61
2022/07/14 03:22:38;;;;;;;3.60;2.10;;;17.60;61.10;;;;;;4983221;28;21186;-66
2022/07/14 03:25:05;;;;;;;3.33;2.30;;;17.60;61.20;;;;;;4984860;28;20547;-61
2022/07/14 03:27:32;;;;;;;2.40;2.20;;;17.60;61.90;;;;;;4983674;28;20181;-60
2022/07/14 03:29:58;;;;;;;5.27;2.60;;;17.60;62.20;;;;;;4987320;28;20547;-61
2022/07/14 03:32:24;;;;;;;2.80;2.60;;;17.50;62.60;;;;;;4984893;28;20532;-60
2022/07/14 03:34:49;;;;;;;3.53;2.40;;;17.50;62.80;;;;;;4978081;28;20177;-61
2022/07/14 03:37:15;;;;;;;2.47;2.23;;;17.50;62.90;;;;;;4985401;28;20626;-61
2022/07/14 03:39:41;;;;;;;2.53;2.10;;;17.50;63.10;;;;;;4981629;28;20561;-60
2022/07/14 03:42:06;;;;;;;3.10;2.20;;;17.50;62.70;;;;;;4982264;28;20181;-61
2022/07/14 03:44:32;;;;;;;5.67;2.27;;;17.50;63.10;;;;;;4983597;28;20184;-60
2022/07/14 03:46:58;;;;;;;2.50;2.30;;;17.40;62.50;;;;;;4988400;28;20208;-61
2022/07/14 03:49:23;;;;;;;3.83;2.40;;;17.50;62.60;;;;;;4985964;28;20688;-60
2022/07/14 03:51:50;;;;;;;3.70;2.40;;;17.50;62.90;;;;;;4981929;28;20663;-61
2022/07/14 03:54:15;;;;;;;2.47;2.20;;;17.50;62.70;;;;;;4973968;28;20268;-57
2022/07/14 03:56:41;;;;;;;2.70;2.10;;;17.50;62.70;;;;;;4976773;28;21068;-58
2022/07/14 03:59:07;;;;;;;5.80;2.00;;;17.40;62.50;;;;;;4981292;28;20177;-56
2022/07/14 04:01:33;;;;;;;3.40;2.03;;;17.40;62.30;;;;;;4983273;28;20188;-58
2022/07/14 04:03:59;;;;;;;2.57;2.27;;;17.40;61.80;;;;;;4985143;28;20432;-57
2022/07/14 04:06:24;;;;;;;3.80;2.03;;;17.40;61.90;;;;;;4977959;28;20262;-57
2022/07/14 04:08:50;;;;;;;2.33;1.93;;;17.50;62.00;;;;;;4981360;28;20173;-59
2022/07/14 04:11:16;;;;;;;3.27;1.83;;;17.50;62.40;;;;;;4980057;28;20214;-58
2022/07/14 04:13:41;;;;;;;4.00;2.30;;;17.50;62.60;;;;;;4971314;28;20735;-60
2022/07/14 04:16:07;;;;;;;4.10;2.87;;;17.60;61.70;;;;;;4975735;28;20201;-59
2022/07/14 04:18:33;;;;;;;3.30;2.40;;;17.60;61.50;;;;;;4971090;28;20427;-59
2022/07/14 04:20:59;;;;;;;3.00;2.70;;;17.60;62.00;;;;;;4980786;28;20552;-59
2022/07/14 04:23:25;;;;;;;3.03;2.73;;;17.60;62.00;;;;;;4979582;28;20196;-60
2022/07/14 04:25:51;;;;;;;3.00;2.27;;;17.60;62.60;;;;;;4981112;28;20483;-59
2022/07/14 04:28:18;;;;;;;5.40;2.93;;;17.70;63.60;;;;;;4980802;28;20424;-61
2022/07/14 04:30:43;;;;;;;4.67;3.37;;;17.70;63.30;;;;;;4981255;28;20474;-60
2022/07/14 04:33:12;;;;;;;6.80;3.37;;;17.70;63.70;;;;;;4971632;28;20431;-61
2022/07/14 04:35:38;;;;;;;3.57;2.90;;;17.70;64.80;;;;;;4980825;28;21488;-59
2022/07/14 04:38:04;;;;;;;5.20;2.80;;;17.60;64.60;;;;;;4971797;28;20428;-57
2022/07/14 04:40:30;;;;;;;3.50;3.17;;;17.60;64.40;;;;;;4980273;28;20437;-57
2022/07/14 04:42:55;;;;;;;3.00;2.30;;;17.60;63.60;;;;;;4974654;28;20299;-60
2022/07/14 04:45:22;;;;;;;2.63;2.43;;;17.60;63.50;;;;;;4976779;28;20197;-60
2022/07/14 04:47:49;;;;;;;2.80;2.60;;;17.60;63.50;;;;;;4986418;28;20177;-60
2022/07/14 04:52:59;;;;;;;3.80;2.90;;;17.60;62.40;;;;;;4989792;28;20430;-62
2022/07/14 04:55:24;;;;;;;8.00;3.07;;;17.60;62.50;;;;;;4981469;28;20532;-61
2022/07/14 04:57:50;;;;;;;2.90;2.53;;;17.60;63.50;;;;;;4985707;28;20189;-61
2022/07/14 05:00:16;;;;;;;4.97;2.50;;;17.60;63.20;;;;;;4985322;28;20185;-61
2022/07/14 05:02:41;;;;;;;8.87;2.80;;;17.60;63.00;;;;;;4986935;28;20189;-61
2022/07/14 05:05:07;;;;;;;6.13;3.33;;;17.60;63.70;;;;;;4983022;28;20200;-61
2022/07/14 05:07:33;;;;;;;8.63;3.73;;;17.70;64.90;;;;;;4986798;28;20219;-61
2022/07/14 05:09:59;;;;;;;4.60;3.20;;;17.70;65.50;;;;;;4985129;28;20488;-61
2022/07/14 05:12:25;;;;;;;3.97;3.10;;;17.70;64.10;;;;;;4984474;28;20204;-62
2022/07/14 05:14:50;;;;;;;3.70;2.70;;;17.80;63.70;;;;;;4986134;28;20459;-62
2022/07/14 05:17:16;;;;;;;3.60;2.70;;;17.80;64.90;;;;;;4987860;28;20173;-61
2022/07/14 05:19:46;;;;;;;2.90;2.37;;;17.80;64.60;;;;;;4986860;28;20564;-61
2022/07/14 05:22:12;;;;;;;6.13;3.00;;;17.80;63.40;;;;;;4989910;28;20185;-61
2022/07/14 05:24:37;;;;;;;4.80;2.77;;;17.90;63.00;;;;;;4988180;28;20515;-61
2022/07/14 05:27:03;;;;;;;4.00;2.50;;;17.90;63.10;;;;;;4986641;28;20647;-61
2022/07/14 05:29:29;;;;;;;4.27;2.77;;;17.90;63.00;;;;;;4987390;28;20692;-61
2022/07/14 05:31:57;;;;;;;3.70;2.60;;;17.90;62.70;;;;;;4990409;28;20627;-61
2022/07/14 05:34:23;;;;;;;8.00;3.00;;;17.90;63.20;;;;;;4982248;28;20186;-61
2022/07/14 05:36:48;;;;;;;3.50;2.87;;;17.90;63.80;;;;;;4991449;28;20428;-61
2022/07/14 05:39:14;;;;;;;5.07;3.40;;;18.00;64.40;;;;;;4989427;28;20189;-62
2022/07/14 05:41:39;;;;;;;4.60;3.97;;;18.00;63.90;;;;;;4989388;28;20340;-62
2022/07/14 05:44:05;;;;;;;3.70;3.37;;;18.10;64.00;;;;;;4980062;28;20236;-61
2022/07/14 05:46:31;;;;;;;5.20;3.17;;;18.10;63.80;;;;;;4985584;28;20225;-61
2022/07/14 05:48:56;;;;;;;4.53;3.00;;;18.10;64.20;;;;;;4988024;28;20181;-61
2022/07/14 05:51:22;;;;;;;3.50;2.97;;;18.10;64.20;;;;;;4991027;28;20672;-61
2022/07/14 05:53:48;;;;;;;4.23;2.80;;;18.10;64.90;;;;;;4985670;28;20180;-61
2022/07/14 05:56:16;;;;;;;4.13;2.30;;;18.20;65.00;;;;;;4981418;28;20197;-61
2022/07/14 05:58:43;;;;;;;9.13;2.70;;;18.30;64.20;;;;;;4987525;28;20780;-62
2022/07/14 06:01:09;;;;;;;7.17;3.10;;;18.40;64.00;;;;;;4979629;28;20870;-62
2022/07/14 06:03:35;;;;;;;6.13;2.93;;;18.50;63.60;;;;;;4986448;28;20439;-62
2022/07/14 06:06:06;;;;;;;4.43;2.53;;;18.60;62.50;;;;;;4979282;28;20280;-62
2022/07/14 06:08:32;;;;;;;9.00;4.30;;;18.70;61.60;;;;;;4988059;28;20490;-62
2022/07/14 06:10:58;;;;;;;8.97;3.13;;;18.80;60.20;;;;;;4989868;28;20634;-61
2022/07/14 06:13:25;;;;;;;5.93;4.13;;;18.90;59.70;;;;;;4983584;28;21074;-62
2022/07/14 06:15:51;;;;;;;4.23;2.60;;;18.90;59.20;;;;;;4982460;28;20500;-61
2022/07/14 06:18:18;;;;;;;5.00;2.57;;;19.00;58.70;;;;;;4984988;28;20531;-61
2022/07/14 06:20:44;;;;;;;2.83;2.50;;;19.10;58.90;;;;;;4985321;28;20185;-60
2022/07/14 06:23:09;;;;;;;2.40;2.10;;;19.20;58.60;;;;;;4986571;28;20476;-61
2022/07/14 06:25:37;;;;;;;4.47;2.10;;;19.20;58.10;;;;;;4982184;28;20308;-60
2022/07/14 06:28:03;;;;;;;4.80;2.47;;;19.30;57.60;;;;;;4983542;28;20192;-61
2022/07/14 06:30:28;;;;;;;5.20;2.73;;;19.40;57.50;;;;;;4987175;28;20972;-61
2022/07/14 06:32:54;;;;;;;8.27;2.97;;;19.50;57.50;;;;;;4987527;28;20243;-60
2022/07/14 06:35:20;;;;;;;9.83;3.47;;;19.60;58.20;;;;;;4988497;28;20275;-60
2022/07/14 06:37:45;;;;;;;5.87;3.40;;;19.80;58.60;;;;;;4985824;28;20662;-61
2022/07/14 06:40:11;;;;;;;10.53;3.80;;;19.90;58.50;;;;;;4987150;28;20190;-61
2022/07/14 06:42:37;;;;;;;8.53;3.80;;;20.10;58.60;;;;;;4984201;28;20181;-60
2022/07/14 06:45:03;;;;;;;12.23;4.30;;;20.20;58.50;;;;;;4986449;28;20212;-60
2022/07/14 06:47:30;;;;;;;9.93;4.83;;;20.30;58.10;;;;;;4986436;28;20191;-61
2022/07/14 06:49:59;;;;;;;7.40;4.33;;;20.40;57.60;;;;;;4985497;28;20471;-61
2022/07/14 06:52:26;;;;;;;7.60;5.00;;;20.50;57.70;;;;;;4980208;28;20483;-61
2022/07/14 06:54:53;;;;;;;9.97;4.43;;;20.50;56.90;;;;;;4979800;28;20432;-61
2022/07/14 06:57:19;;;;;;;8.00;4.10;;;20.70;56.90;;;;;;4978046;28;20929;-61
2022/07/14 06:59:45;;;;;;;8.10;4.40;;;20.90;56.70;;;;;;4981319;28;20502;-60
2022/07/14 07:02:11;;;;;;;5.07;3.90;;;21.00;56.30;;;;;;4984515;28;20952;-61
2022/07/14 07:04:37;;;;;;;13.43;4.30;;;21.10;56.20;;;;;;4987702;28;20439;-60
2022/07/14 07:07:03;;;;;;;7.33;4.07;;;21.20;55.40;;;;;;4983383;28;20177;-61
2022/07/14 07:09:29;;;;;;;13.97;3.33;;;21.40;55.60;;;;;;4981781;28;20926;-61
2022/07/14 07:11:55;;;;;;;3.90;2.80;;;21.60;56.00;;;;;;4978875;28;20477;-59
2022/07/14 07:14:20;;;;;;;6.50;3.40;;;21.70;55.20;;;;;;4981979;28;20887;-60
2022/07/14 07:16:48;;;;;;;6.90;3.20;;;21.80;54.60;;;;;;4984145;28;20255;-60
2022/07/14 07:19:15;;;;;;;2.70;2.43;;;22.00;53.60;;;;;;4982980;28;20287;-61
2022/07/14 07:21:41;;;;;;;6.43;2.80;;;22.10;52.80;;;;;;4985051;28;21073;-60
2022/07/14 07:24:07;;;;;;;5.63;3.07;;;22.30;51.70;;;;;;4988402;28;20441;-60
2022/07/14 07:26:35;;;;;;;2.40;2.17;;;22.50;51.50;;;;;;4984663;28;20201;-60
2022/07/14 07:29:01;;;;;;;6.00;2.60;;;22.70;51.20;;;;;;4987429;28;20427;-60
2022/07/14 07:31:27;;;;;;;9.80;2.70;;;22.80;51.50;;;;;;4985621;28;20444;-60
2022/07/14 07:33:53;;;;;;;5.90;2.90;;;23.00;51.40;;;;;;4988243;28;20420;-60
2022/07/14 07:36:19;;;;;;;6.73;2.57;;;23.20;50.20;;;;;;4977626;28;20209;-61
2022/07/14 07:38:45;;;;;;;2.73;2.47;;;23.30;50.60;;;;;;4985957;28;20197;-60
2022/07/14 07:41:11;;;;;;;6.53;2.30;;;23.40;48.60;;;;;;4981089;28;20437;-61
2022/07/14 07:43:37;;;;;;;3.43;2.50;;;23.60;48.90;;;;;;4988177;28;20478;-61
2022/07/14 07:46:03;;;;;;;4.93;2.37;;;23.70;48.60;;;;;;4985299;28;20203;-60
2022/07/14 07:48:33;;;;;;;3.00;2.60;;;23.80;48.00;;;;;;4980900;28;20273;-61
2022/07/14 07:50:59;;;;;;;2.70;1.90;;;23.90;48.40;;;;;;4982286;28;20211;-60
2022/07/14 07:53:25;;;;;;;3.90;2.20;;;24.00;48.70;;;;;;4988332;28;20507;-62
2022/07/14 07:55:53;;;;;;;9.80;1.93;;;24.10;47.80;;;;;;4987656;28;20225;-61
2022/07/14 07:58:20;;;;;;;5.07;2.30;;;24.30;46.50;;;;;;4982988;28;20557;-61
2022/07/14 08:00:47;;;;;;;4.17;1.70;;;24.40;45.30;;;;;;4984038;28;20432;-60
2022/07/14 08:03:13;;;;;;;1.93;1.80;;;24.60;45.40;;;;;;4983496;28;20472;-61
2022/07/14 08:05:40;;;;;;;3.00;2.13;;;24.70;44.80;;;;;;4980182;28;20495;-60
2022/07/14 08:08:09;;;;;;;3.50;1.57;;;24.80;45.00;;;;;;4981871;28;20232;-61
2022/07/14 08:10:36;;;;;;;7.20;1.60;;;25.00;45.40;;;;;;4987539;28;20542;-60
2022/07/14 08:13:02;;;;;;;1.80;1.70;;;25.20;44.10;;;;;;4979746;28;20901;-61
2022/07/14 08:15:27;;;;;;;3.07;1.73;;;25.20;43.90;;;;;;4983295;28;20964;-62
2022/07/14 08:17:53;;;;;;;2.10;1.90;;;25.30;44.20;;;;;;4985164;28;20212;-61
2022/07/14 08:20:21;;;;;;;3.93;1.70;;;25.40;44.20;;;;;;4985100;28;20177;-61
2022/07/14 08:22:47;;;;;;;2.83;1.63;;;25.50;44.10;;;;;;4973639;28;20190;-60
2022/07/14 08:25:13;;;;;;;3.27;1.70;;;25.70;43.70;;;;;;4980588;28;20514;-61
2022/07/14 08:27:39;;;;;;;3.93;2.03;;;25.70;43.30;;;;;;4981441;28;20181;-61
2022/07/14 08:30:05;;;;;;;2.37;1.73;;;25.80;43.60;;;;;;4978786;28;20291;-61
2022/07/14 08:32:39;;;;;;;6.60;2.10;;;25.90;43.90;;;;;;4977687;28;20863;-61
2022/07/14 08:35:08;;;;;;;6.53;2.00;;;26.00;43.20;;;;;;4972846;28;20454;-57
2022/07/14 08:37:34;;;;;;;5.20;1.80;;;26.10;43.10;;;;;;4978200;28;20517;-56
2022/07/14 08:40:00;;;;;;;3.23;1.97;;;26.20;43.00;;;;;;4978943;28;20518;-56
2022/07/14 08:42:28;;;;;;;1.70;1.60;;;26.30;42.60;;;;;;4982525;28;20604;-62
2022/07/14 08:44:54;;;;;;;1.97;1.67;;;26.30;41.90;;;;;;4987543;28;20442;-61
2022/07/14 08:47:21;;;;;;;3.70;1.70;;;26.40;42.00;;;;;;4984072;28;20444;-62
2022/07/14 08:49:47;;;;;;;3.30;1.93;;;26.50;42.10;;;;;;4985358;28;20717;-61
2022/07/14 08:52:17;;;;;;;2.00;1.80;;;26.50;42.00;;;;;;4987221;28;20432;-61
2022/07/14 08:54:45;;;;;;;1.70;1.60;;;26.60;42.10;;;;;;4986814;28;20526;-61
2022/07/14 08:57:11;;;;;;;2.17;1.80;;;26.70;42.10;;;;;;4982796;28;20452;-61
2022/07/14 08:59:38;;;;;;;3.53;1.73;;;26.90;41.70;;;;;;4982393;28;20475;-61
2022/07/14 09:02:04;;;;;;;3.10;1.77;;;27.00;40.40;;;;;;4986234;28;20285;-61
2022/07/14 09:04:30;;;;;;;1.60;1.50;;;27.10;40.10;;;;;;4979986;28;20444;-61
2022/07/14 09:06:57;;;;;;;5.83;1.60;;;27.20;40.00;;;;;;4983209;28;20817;-61
2022/07/14 09:09:28;;;;;;;2.80;1.70;;;27.30;39.50;;;;;;4984220;28;20219;-61
2022/07/14 09:11:58;;;;;;;1.50;1.40;;;27.40;39.40;;;;;;4984351;28;20181;-61
2022/07/14 09:14:25;;;;;;;2.67;1.60;;;27.50;38.40;;;;;;4975355;28;20184;-61
2022/07/14 09:16:52;;;;;;;2.43;1.63;;;27.60;38.10;;;;;;4980206;28;20712;-61
2022/07/14 09:19:19;;;;;;;2.03;1.60;;;27.70;36.70;;;;;;4987090;28;20299;-61
2022/07/14 09:21:55;;;;;;;2.37;1.60;;;27.70;37.10;;;;;;4985386;28;20595;-61
2022/07/14 09:24:22;;;;;;;2.17;1.57;;;27.70;37.00;;;;;;4985817;28;20221;-61
2022/07/14 09:26:50;;;;;;;6.00;1.80;;;27.80;36.60;;;;;;4983282;28;20200;-61
2022/07/14 09:29:29;;;;;;;2.83;1.50;;;27.80;36.70;;;;;;4981609;28;20204;-61
2022/07/14 09:31:55;;;;;;;2.10;1.90;;;27.90;36.40;;;;;;4983643;28;20196;-61
2022/07/14 09:34:32;;;;;;;2.00;1.90;;;28.00;37.10;;;;;;4978896;28;20665;-61
2022/07/14 09:37:18;;;;;;;5.33;1.77;;;28.20;37.50;;;;;;4980633;28;20432;-61
2022/07/14 09:39:51;;;;;;;4.23;1.60;;;28.30;36.70;;;;;;4982534;28;21063;-61
2022/07/14 09:42:17;;;;;;;7.27;2.07;;;28.40;37.20;;;;;;4983740;28;20192;-61
2022/07/14 09:44:43;;;;;;;2.40;1.90;;;28.60;37.70;;;;;;4982859;28;20184;-61
2022/07/14 09:47:09;;;;;;;5.20;1.90;;;28.80;38.50;;;;;;4983295;28;20207;-62
2022/07/14 09:49:37;;;;;;;3.80;1.93;;;28.90;38.40;;;;;;4977278;28;21841;-56
2022/07/14 09:52:04;;;;;;;2.88;2.10;;;28.90;39.30;;;;;;4973350;28;20532;-57
2022/07/14 09:54:40;;;;;;;3.47;2.17;;;29.00;40.60;;;;;;4972313;28;20808;-57
2022/07/14 09:57:12;;;;;;;2.70;1.80;;;29.10;40.50;;;;;;4988070;28;20187;-57
2022/07/14 09:59:51;;;;;;;2.15;1.90;;;29.10;39.10;;;;;;4988205;28;20180;-56
2022/07/14 10:02:28;;;;;;;2.90;1.92;;;29.00;39.20;;;;;;4985512;28;20203;-57
2022/07/14 10:05:01;;;;;;;2.10;1.90;;;29.00;39.80;;;;;;4980938;28;20227;-57
2022/07/14 10:07:29;;;;;;;5.95;2.28;;;29.00;39.20;;;;;;4982009;28;20173;-57
2022/07/14 10:10:05;;;;;;;2.38;2.05;;;29.00;40.10;;;;;;4977678;28;20781;-57
2022/07/14 10:12:32;;;;;;;5.10;2.40;;;29.10;40.20;;;;;;4982897;28;20188;-57
2022/07/14 10:15:02;;;;;;;2.25;2.00;;;29.20;40.10;;;;;;4978802;28;20200;-56
2022/07/14 10:17:29;;;;;;;7.60;1.60;;;29.20;40.20;;;;;;4986807;28;20260;-56
2022/07/14 10:19:55;;;;;;;4.65;2.15;;;29.20;38.00;;;;;;4986392;28;20541;-58
2022/07/14 10:22:21;;;;;;;5.85;2.10;;;29.30;39.10;;;;;;4988325;28;20599;-57
2022/07/14 10:24:49;;;;;;;1.98;1.88;;;29.40;39.80;;;;;;4985039;28;20177;-58
2022/07/14 10:27:19;;;;;;;2.20;1.90;;;29.50;38.80;;;;;;4977388;28;20180;-58
2022/07/14 10:29:53;;;;;;;2.28;2.13;;;29.60;38.90;;;;;;4979636;28;20208;-61
2022/07/14 10:32:24;;;;;;;1.80;1.70;;;29.70;37.40;;;;;;4988848;28;20755;-60
2022/07/14 10:35:00;;;;;;;3.83;1.73;;;29.70;37.60;;;;;;4987916;28;20184;-60
2022/07/14 10:37:38;;;;;;;5.03;2.05;;;29.80;37.60;;;;;;4979905;28;20179;-61
2022/07/14 10:40:16;;;;;;;2.63;2.33;;;29.90;37.50;;;;;;4987815;28;20213;-62
2022/07/14 10:43:03;;;;;;;3.63;2.28;;;29.90;36.20;;;;;;4985726;28;20183;-60
2022/07/14 10:45:29;;;;;;;2.55;2.10;;;29.90;36.70;;;;;;4984789;28;20918;-60
2022/07/14 10:47:54;;;;;;;2.15;1.75;;;30.00;38.60;;;;;;4982685;28;20218;-61
2022/07/14 10:50:21;;;;;;;8.02;2.10;;;30.10;37.10;;;;;;4984458;28;20205;-61
2022/07/14 10:53:05;;;;;;;2.28;2.08;;;30.30;35.90;;;;;;4989632;28;20181;-61
2022/07/14 10:55:31;;;;;;;6.10;1.73;;;30.30;35.30;;;;;;4981324;28;20567;-60
2022/07/14 10:57:59;;;;;;;1.80;1.67;;;30.30;35.80;;;;;;4981608;28;20659;-61
2022/07/14 11:00:43;;;;;;;5.88;2.20;;;30.40;36.20;;;;;;4986517;28;20597;-60
2022/07/14 11:03:25;;;;;;;1.98;1.88;;;30.60;35.80;;;;;;4980982;28;20172;-61
2022/07/14 11:06:12;;;;;;;1.90;1.67;;;30.70;36.00;;;;;;4980964;28;20276;-62
2022/07/14 11:08:44;;;;;;;2.28;1.98;;;30.90;36.20;;;;;;4979826;28;20268;-60
2022/07/14 11:11:25;;;;;;;3.78;2.10;;;31.10;35.30;;;;;;4987157;28;20209;-60
2022/07/14 11:14:04;;;;;;;3.83;1.80;;;31.20;34.70;;;;;;4983838;28;20189;-60
2022/07/14 11:16:50;;;;;;;2.30;2.15;;;31.20;34.30;;;;;;4986452;28;20249;-63
2022/07/14 11:19:28;;;;;;;3.42;1.67;;;31.20;33.80;;;;;;4980577;28;20176;-60
2022/07/14 11:22:13;;;;;;;2.75;1.70;;;31.30;34.40;;;;;;4983422;28;20190;-60
2022/07/14 11:25:06;;;;;;;4.00;1.75;;;31.50;33.60;;;;;;4981270;28;20182;-61
2022/07/14 11:27:35;;;;;;;1.75;1.65;;;31.60;31.30;;;;;;4978354;28;20179;-60
2022/07/14 11:30:26;;;;;;;3.20;1.67;;;31.60;31.60;;;;;;4975718;28;20318;-61
2022/07/14 11:33:10;;;;;;;3.35;1.45;;;31.80;31.80;;;;;;4986234;28;20239;-62
2022/07/14 11:38:32;;;;;;;1.60;1.50;;;32.00;31.60;;;;;;4981079;28;20182;-61
2022/07/14 11:40:58;;;;;;;4.03;1.50;;;31.90;30.80;;;;;;4981656;28;20254;-62
2022/07/14 11:43:28;;;;;;;3.67;1.98;;;31.90;31.60;;;;;;4981710;28;20203;-61
2022/07/14 11:46:03;;;;;;;3.63;1.92;;;32.00;31.30;;;;;;4980670;28;20205;-61
2022/07/14 11:48:52;;;;;;;2.15;1.95;;;32.00;31.40;;;;;;4984051;28;20181;-61
2022/07/14 11:51:22;;;;;;;2.53;1.95;;;32.10;30.70;;;;;;4978757;28;20205;-62
2022/07/14 11:54:08;;;;;;;5.00;2.08;;;32.10;30.60;;;;;;4980723;28;20188;-61
2022/07/14 11:56:35;;;;;;;1.90;1.80;;;32.20;31.40;;;;;;4983294;28;20215;-58
2022/07/14 11:59:07;;;;;;;2.55;1.80;;;32.30;32.10;;;;;;4985016;28;20832;-58
2022/07/14 12:01:38;;;;;;;3.40;2.00;;;32.40;31.90;;;;;;4982457;28;20312;-59
2022/07/14 12:04:16;;;;;;;1.90;1.80;;;32.50;33.80;;;;;;4981084;28;20181;-59
2022/07/14 12:06:47;;;;;;;4.00;2.17;;;32.70;32.30;;;;;;4984252;28;20216;-59
2022/07/14 12:09:16;;;;;;;2.03;1.92;;;32.80;32.20;;;;;;4975389;28;20206;-59
2022/07/14 12:11:52;;;;;;;5.65;2.10;;;32.80;32.80;;;;;;4976467;28;20804;-57
2022/07/14 12:14:19;;;;;;;1.98;1.80;;;32.80;31.60;;;;;;4978645;28;20594;-59
2022/07/14 12:16:45;;;;;;;11.13;2.50;;;32.80;31.90;;;;;;4985979;28;20675;-58
2022/07/14 12:19:12;;;;;;;3.28;1.90;;;32.90;31.70;;;;;;4984685;28;20211;-62
2022/07/14 12:21:38;;;;;;;5.82;2.30;;;32.90;30.60;;;;;;4984876;28;20558;-59
2022/07/14 12:24:11;;;;;;;5.65;2.00;;;32.90;30.60;;;;;;4985424;28;20270;-59
2022/07/14 12:26:37;;;;;;;3.35;1.85;;;33.00;30.60;;;;;;4980396;28;20203;-61
2022/07/14 12:29:05;;;;;;;2.47;2.28;;;33.10;31.00;;;;;;4988808;28;20176;-58
2022/07/14 12:31:38;;;;;;;8.50;1.98;;;33.20;31.00;;;;;;4987920;28;20286;-57
2022/07/14 12:34:04;;;;;;;3.70;2.08;;;33.40;31.50;;;;;;4985797;28;20253;-62
2022/07/14 12:36:30;;;;;;;4.53;2.10;;;33.40;30.20;;;;;;4988076;28;20767;-63
2022/07/14 12:38:58;;;;;;;2.30;2.10;;;33.40;30.20;;;;;;4982636;28;20237;-63
2022/07/14 12:41:25;;;;;;;3.55;2.20;;;33.50;30.10;;;;;;4982196;28;20237;-63
2022/07/14 12:43:52;;;;;;;8.60;2.08;;;33.50;30.30;;;;;;4984915;28;20203;-63
2022/07/14 12:46:20;;;;;;;2.15;1.83;;;33.50;29.80;;;;;;4979204;28;20342;-63
2022/07/14 12:48:49;;;;;;;3.78;1.98;;;33.50;30.40;;;;;;4981280;28;20188;-63
2022/07/14 12:51:20;;;;;;;1.83;1.73;;;33.60;29.80;;;;;;4984284;28;20688;-63
2022/07/14 12:54:19;;;;;;;2.30;2.20;;;33.60;29.90;;;;;;4979716;28;20245;-63
2022/07/14 12:56:51;;;;;;;2.20;2.00;;;33.50;29.80;;;;;;4979407;28;20570;-62
2022/07/14 12:59:21;;;;;;;3.55;1.70;;;33.50;29.10;;;;;;4975920;28;20559;-61